Time;durP1;ratioP1;P1;durP2;ratioP2;P2;SDS_P1;SDS_P2;PMS_P1;PMS_P2;Temp;Humidity;BMP_temperature;BMP_pressure;BME280_temperature;BME280_humidity;BME280_pressure;Samples;Min_cycle;Max_cycle;Signal;HPM_P1;HPM_P2
2023/12/17 00:05:03;;;;;;;20.33;13.10;;;1.80;99.90;;;2.28;100.00;100243.75;10371989;28;20307;-67
2023/12/17 00:10:07;;;;;;;73.20;16.43;;;1.60;99.90;;;2.33;100.00;100241.09;10365913;28;20233;-68
2023/12/17 00:15:12;;;;;;;48.70;16.23;;;1.70;99.90;;;2.25;100.00;100252.72;10375399;28;20340;-66
2023/12/17 00:20:15;;;;;;;16.93;13.10;;;1.60;99.90;;;2.16;100.00;100261.66;10368466;28;20749;-67
2023/12/17 00:25:18;;;;;;;34.90;14.23;;;1.60;99.90;;;2.41;100.00;100257.22;10372544;28;20234;-67
2023/12/17 00:30:23;;;;;;;32.43;14.37;;;1.70;99.90;;;2.58;100.00;100245.13;10373664;28;20610;-67
2023/12/17 00:35:26;;;;;;;106.13;18.43;;;1.80;99.90;;;2.02;100.00;100253.94;10378602;28;20616;-66
2023/12/17 00:40:30;;;;;;;40.87;14.23;;;1.40;99.90;;;1.72;100.00;100258.47;10371894;28;20238;-67
2023/12/17 00:45:34;;;;;;;69.73;13.90;;;1.20;99.90;;;1.62;100.00;100257.94;10383266;28;20429;-67
2023/12/17 00:50:37;;;;;;;57.27;14.93;;;1.10;99.90;;;1.72;100.00;100268.53;10369110;28;20234;-67
2023/12/17 00:55:40;;;;;;;56.00;14.67;;;1.10;99.90;;;1.60;100.00;100260.25;10369773;28;20336;-66
2023/12/17 01:00:45;;;;;;;25.37;12.17;;;1.10;99.90;;;1.40;100.00;100252.63;10382439;28;20318;-68
2023/12/17 01:05:57;;;;;;;13.87;12.57;;;0.90;99.90;;;1.49;100.00;100252.94;10376119;28;20226;-66
2023/12/17 01:11:00;;;;;;;46.47;14.80;;;1.10;99.90;;;1.53;100.00;100262.69;10378806;28;20241;-68
2023/12/17 01:16:06;;;;;;;15.43;14.00;;;1.10;99.90;;;1.48;100.00;100276.31;10371935;28;20244;-67
2023/12/17 01:21:09;;;;;;;14.30;12.80;;;1.10;99.90;;;1.77;100.00;100283.56;10385591;28;20238;-67
2023/12/17 01:26:20;;;;;;;57.07;16.03;;;1.30;99.90;;;1.86;100.00;100282.91;10381398;28;20273;-67
2023/12/17 01:31:24;;;;;;;89.03;18.50;;;1.30;99.90;;;1.77;100.00;100285.16;10377030;28;20646;-65
2023/12/17 01:36:28;;;;;;;51.87;15.47;;;1.10;99.90;;;1.60;100.00;100287.06;10381909;28;20230;-67
2023/12/17 01:41:31;;;;;;;17.47;14.47;;;1.00;99.90;;;1.40;100.00;100294.53;10376154;28;20249;-65
2023/12/17 01:46:36;;;;;;;17.00;13.20;;;0.90;99.90;;;1.50;100.00;100305.13;10376745;28;20217;-67
2023/12/17 01:51:40;;;;;;;16.77;15.00;;;1.00;99.90;;;1.30;100.00;100300.91;10378145;28;20234;-67
2023/12/17 01:56:43;;;;;;;29.63;14.47;;;0.90;99.90;;;1.33;100.00;100296.25;10378520;28;20372;-68
2023/12/17 02:01:48;;;;;;;15.40;13.60;;;0.80;99.90;;;1.27;100.00;100287.00;10372363;28;20315;-66
2023/12/17 02:06:52;;;;;;;14.97;13.57;;;0.80;99.90;;;1.27;100.00;100280.34;10370801;28;20226;-67
2023/12/17 02:11:55;;;;;;;21.80;14.83;;;0.90;99.90;;;1.20;100.00;100285.25;10389102;28;20242;-66
2023/12/17 02:16:59;;;;;;;15.10;13.60;;;0.80;99.90;;;1.23;100.00;100285.69;10371307;28;20229;-68
2023/12/17 02:22:03;;;;;;;29.23;18.17;;;0.80;99.90;;;1.18;100.00;100281.66;10379413;28;20313;-68
2023/12/17 02:27:07;;;;;;;17.77;16.07;;;0.80;99.90;;;1.19;100.00;100283.44;10385516;28;20308;-67
2023/12/17 02:32:10;;;;;;;17.17;15.40;;;0.80;99.90;;;1.44;100.00;100279.16;10367376;28;20233;-67
2023/12/17 02:37:14;;;;;;;31.63;18.50;;;1.00;99.90;;;1.43;100.00;100277.31;10375952;28;20233;-67
2023/12/17 02:42:19;;;;;;;51.43;19.77;;;1.10;99.90;;;1.19;100.00;100278.41;10383179;28;20252;-67
2023/12/17 02:47:22;;;;;;;24.93;18.43;;;0.90;99.90;;;1.33;100.00;100278.63;10367596;28;20242;-67
2023/12/17 02:52:26;;;;;;;42.97;19.03;;;1.00;99.90;;;1.23;100.00;100273.09;10375029;28;20240;-67
2023/12/17 02:57:31;;;;;;;20.07;16.93;;;0.90;99.90;;;1.43;100.00;100262.19;10375303;28;20333;-67
2023/12/17 03:02:34;;;;;;;73.73;19.47;;;0.90;99.90;;;1.24;100.00;100259.78;10368308;28;20221;-67
2023/12/17 03:07:37;;;;;;;19.33;17.33;;;0.80;99.90;;;1.19;100.00;100258.28;10364211;28;20313;-66
2023/12/17 03:12:42;;;;;;;65.30;19.63;;;0.80;99.90;;;1.26;100.00;100257.44;10380214;28;20760;-68
2023/12/17 03:17:45;;;;;;;66.87;19.57;;;0.80;99.90;;;1.29;100.00;100248.72;10367253;28;20230;-65
2023/12/17 03:22:48;;;;;;;18.07;15.83;;;0.90;99.90;;;1.40;100.00;100246.69;10367678;28;20594;-69
2023/12/17 03:27:53;;;;;;;61.27;18.00;;;1.00;99.90;;;1.37;100.00;100224.50;10367191;28;20307;-69
2023/12/17 03:32:56;;;;;;;42.10;17.73;;;1.00;99.90;;;1.40;100.00;100222.38;10369029;28;20304;-67
2023/12/17 03:37:59;;;;;;;18.70;16.53;;;0.90;99.90;;;1.40;100.00;100236.59;10376414;28;20226;-65
2023/12/17 03:43:03;;;;;;;19.17;16.07;;;1.00;99.90;;;1.50;100.00;100224.50;10368851;28;20255;-67
2023/12/17 03:48:07;;;;;;;45.63;18.93;;;1.00;99.90;;;1.51;100.00;100212.09;10369705;28;20234;-66
2023/12/17 03:53:11;;;;;;;17.00;15.07;;;1.00;99.90;;;1.53;100.00;100205.66;10369290;28;20226;-67
2023/12/17 03:58:15;;;;;;;65.40;19.37;;;1.00;99.90;;;1.41;100.00;100201.53;10370881;28;20248;-67
2023/12/17 04:03:18;;;;;;;85.53;18.53;;;0.90;99.90;;;1.30;100.00;100200.13;10371467;28;20230;-66
2023/12/17 04:08:22;;;;;;;65.63;15.77;;;0.80;99.90;;;1.10;100.00;100210.13;10383998;28;20618;-66
2023/12/17 04:13:26;;;;;;;26.57;14.43;;;0.70;99.90;;;1.13;100.00;100199.53;10385459;28;20349;-65
2023/12/17 04:18:29;;;;;;;62.67;16.40;;;0.60;99.90;;;1.09;100.00;100192.31;10382444;28;20774;-64
2023/12/17 04:23:32;;;;;;;13.77;12.47;;;0.60;99.90;;;1.29;100.00;100193.28;10380037;28;20229;-68
2023/12/17 04:28:37;;;;;;;40.97;15.83;;;0.80;99.90;;;1.07;100.00;100199.66;10388760;28;20218;-67
2023/12/17 04:33:40;;;;;;;18.90;13.70;;;0.70;99.90;;;1.10;100.00;100199.16;10378552;28;20230;-66
2023/12/17 04:38:46;;;;;;;42.97;15.87;;;0.60;99.90;;;1.02;100.00;100200.63;10374493;28;20219;-67
2023/12/17 04:43:51;;;;;;;27.57;13.87;;;0.60;99.90;;;1.05;100.00;100201.03;10391723;28;20253;-70
2023/12/17 04:48:54;;;;;;;20.23;13.33;;;0.50;99.90;;;1.24;100.00;100186.75;10370717;28;20600;-66
2023/12/17 04:53:57;;;;;;;28.83;14.37;;;0.60;99.90;;;1.37;100.00;100185.81;10366923;28;20234;-67
2023/12/17 04:59:02;;;;;;;87.03;16.77;;;0.70;99.90;;;1.26;100.00;100194.47;10377292;28;20222;-68
2023/12/17 05:04:05;;;;;;;69.33;17.20;;;0.70;99.90;;;1.13;100.00;100199.53;10377935;28;20226;-67
2023/12/17 05:09:08;;;;;;;47.27;14.93;;;0.40;99.90;;;1.39;100.00;100186.94;10367659;28;20233;-68
2023/12/17 05:14:13;;;;;;;39.50;15.80;;;0.60;99.90;;;1.19;100.00;100189.38;10374040;28;20226;-67
2023/12/17 05:19:16;;;;;;;18.83;15.60;;;0.60;99.90;;;1.20;100.00;100171.91;10374758;28;20738;-68
2023/12/17 05:24:19;;;;;;;32.70;15.80;;;0.70;99.90;;;1.09;100.00;100164.59;10377093;28;20283;-68
2023/12/17 05:29:24;;;;;;;20.37;15.23;;;0.50;99.90;;;0.99;100.00;100170.03;10371384;28;20225;-66
2023/12/17 05:34:27;;;;;;;15.73;14.07;;;0.50;99.90;;;1.03;100.00;100164.72;10373554;28;20230;-67
2023/12/17 05:39:30;;;;;;;18.93;14.10;;;0.50;99.90;;;1.08;100.00;100171.22;10370563;28;20223;-67
2023/12/17 05:44:35;;;;;;;16.57;14.30;;;0.60;99.90;;;1.01;100.00;100167.72;10370257;28;20230;-66
2023/12/17 05:49:38;;;;;;;19.63;15.13;;;0.50;99.90;;;1.07;100.00;100171.03;10380057;28;20559;-66
2023/12/17 05:54:44;;;;;;;16.63;13.77;;;0.60;99.90;;;0.99;100.00;100167.50;10367229;28;20408;-67
2023/12/17 05:59:48;;;;;;;25.00;14.87;;;0.50;99.90;;;0.85;100.00;100182.41;10373388;28;20222;-65
2023/12/17 06:04:52;;;;;;;15.73;14.23;;;0.40;99.90;;;0.98;100.00;100177.41;10377173;28;20310;-66
2023/12/17 06:09:56;;;;;;;31.03;16.80;;;0.50;99.90;;;0.93;100.00;100191.88;10378042;28;20222;-67
2023/12/17 06:15:00;;;;;;;22.47;15.07;;;0.40;99.90;;;0.88;100.00;100193.78;10373906;28;21105;-66
2023/12/17 06:20:05;;;;;;;30.70;22.17;;;0.40;99.90;;;1.00;100.00;100191.06;10364679;28;20230;-66
2023/12/17 06:25:09;;;;;;;42.10;19.60;;;0.40;99.90;;;0.89;100.00;100190.59;10364956;28;20248;-66
2023/12/17 06:30:14;;;;;;;33.60;19.27;;;0.40;99.90;;;1.04;100.00;100189.16;10367132;28;20238;-67
2023/12/17 06:35:18;;;;;;;30.03;20.83;;;0.50;99.90;;;1.04;100.00;100198.34;10368151;28;20254;-68
2023/12/17 06:40:21;;;;;;;37.70;21.70;;;0.50;99.90;;;1.10;100.00;100196.63;10370311;28;20225;-67
2023/12/17 06:45:26;;;;;;;34.80;16.97;;;0.60;99.90;;;1.20;100.00;100202.13;10366900;28;20230;-66
2023/12/17 06:50:29;;;;;;;67.23;17.53;;;0.50;99.90;;;1.36;100.00;100195.00;10364003;28;20644;-67
2023/12/17 06:55:32;;;;;;;26.80;15.50;;;0.60;99.90;;;0.94;100.00;100198.72;10367103;28;20233;-67
2023/12/17 07:00:36;;;;;;;53.97;15.10;;;0.40;99.90;;;0.84;100.00;100203.25;10360975;28;20321;-66
2023/12/17 07:05:40;;;;;;;23.20;15.23;;;0.30;99.90;;;0.85;100.00;100200.94;10363778;28;20387;-68
2023/12/17 07:10:43;;;;;;;24.37;15.70;;;0.30;99.90;;;1.02;100.00;100207.28;10367959;28;20230;-67
2023/12/17 07:15:47;;;;;;;96.87;25.07;;;0.40;99.90;;;0.83;100.00;100197.34;10362413;28;20229;-66
2023/12/17 07:20:51;;;;;;;24.40;17.20;;;0.30;99.90;;;1.06;100.00;100191.88;10362813;28;20715;-69
2023/12/17 07:25:54;;;;;;;180.57;75.53;;;0.50;99.90;;;1.08;100.00;100182.91;10363012;28;20311;-67
2023/12/17 07:30:58;;;;;;;30.93;19.60;;;0.40;99.90;;;0.95;100.00;100192.09;10367525;28;20316;-67
2023/12/17 07:36:01;;;;;;;30.77;16.73;;;0.40;99.90;;;1.04;100.00;100190.78;10358295;28;20233;-68
2023/12/17 07:41:05;;;;;;;30.83;15.40;;;0.50;99.90;;;1.03;100.00;100201.53;10359986;28;20280;-69
2023/12/17 07:46:09;;;;;;;42.10;15.60;;;0.50;99.90;;;1.13;100.00;100192.00;10364409;28;20232;-70
2023/12/17 07:51:12;;;;;;;21.83;15.10;;;0.60;99.90;;;1.20;100.00;100192.06;10363278;28;20232;-69
2023/12/17 07:56:16;;;;;;;19.77;14.93;;;0.60;99.90;;;1.21;100.00;100193.00;10356570;28;20316;-68
2023/12/17 08:01:28;;;;;;;32.77;14.97;;;0.60;99.90;;;0.95;100.00;100205.59;10363816;28;20238;-69
2023/12/17 08:06:32;;;;;;;40.00;16.33;;;0.50;99.90;;;1.05;100.00;100207.69;10360828;28;20230;-67
2023/12/17 08:11:39;;;;;;;39.00;17.53;;;0.50;99.90;;;1.19;100.00;100200.34;10361593;28;20643;-67
2023/12/17 08:16:44;;;;;;;30.77;17.47;;;0.60;99.90;;;1.35;100.00;100199.13;10359219;28;20225;-68
2023/12/17 08:21:47;;;;;;;21.97;16.50;;;0.60;99.90;;;1.20;100.00;100191.16;10361016;28;20231;-68
2023/12/17 08:26:51;;;;;;;27.90;17.53;;;0.50;99.90;;;1.22;100.00;100193.19;10364942;28;20229;-67
2023/12/17 08:31:56;;;;;;;46.57;18.83;;;0.60;99.90;;;1.24;100.00;100189.25;10359909;28;20316;-69
2023/12/17 08:36:59;;;;;;;51.57;19.43;;;0.70;99.90;;;1.37;100.00;100196.78;10355692;28;20699;-68
2023/12/17 08:42:03;;;;;;;30.80;16.93;;;0.70;99.90;;;1.42;100.00;100189.84;10361617;28;20254;-69
2023/12/17 08:47:08;;;;;;;24.40;19.27;;;0.70;99.90;;;1.40;100.00;100188.72;10365917;28;20236;-70
2023/12/17 08:52:11;;;;;;;54.13;19.70;;;0.70;99.90;;;1.45;100.00;100186.09;10375967;28;20256;-70
2023/12/17 08:57:14;;;;;;;129.53;21.57;;;0.80;99.90;;;1.46;100.00;100192.03;10372316;28;20256;-70
2023/12/17 09:02:18;;;;;;;32.17;16.53;;;0.90;99.90;;;1.58;100.00;100178.53;10371270;28;20233;-71
2023/12/17 09:07:21;;;;;;;24.07;16.63;;;0.80;99.90;;;1.73;100.00;100182.13;10371340;28;20230;-70
2023/12/17 09:12:25;;;;;;;56.50;16.77;;;0.90;99.90;;;1.61;100.00;100183.06;10369187;28;20256;-70
2023/12/17 09:17:29;;;;;;;23.90;16.73;;;0.90;99.90;;;1.76;100.00;100175.84;10372706;28;20265;-70
2023/12/17 09:22:32;;;;;;;23.63;17.03;;;1.10;99.90;;;1.78;100.00;100179.47;10368550;28;20309;-69
2023/12/17 09:27:35;;;;;;;30.77;17.70;;;1.20;99.90;;;2.01;100.00;100184.03;10377088;28;20610;-70
2023/12/17 09:32:40;;;;;;;17.13;15.33;;;1.30;99.90;;;2.33;100.00;100182.16;10372600;28;20226;-68
2023/12/17 09:37:43;;;;;;;17.47;14.90;;;1.50;99.90;;;2.36;100.00;100177.50;10368452;28;20581;-70
2023/12/17 09:42:51;;;;;;;16.03;14.43;;;1.70;99.90;;;2.46;100.00;100182.97;10360713;28;20312;-68
2023/12/17 09:47:56;;;;;;;19.57;17.57;;;1.70;99.90;;;2.50;100.00;100184.31;10360134;28;20232;-68
2023/12/17 09:52:59;;;;;;;18.83;17.03;;;1.70;99.90;;;2.57;100.00;100175.13;10372578;28;20261;-70
2023/12/17 09:58:04;;;;;;;19.53;17.43;;;2.00;99.90;;;2.94;100.00;100168.00;10365106;28;20233;-72
2023/12/17 10:03:12;;;;;;;16.40;14.80;;;2.30;99.90;;;3.48;100.00;100156.91;10363905;28;20304;-68
2023/12/17 10:08:17;;;;;;;15.97;14.37;;;2.70;99.90;;;3.62;100.00;100156.06;10362576;28;20320;-68
2023/12/17 10:13:21;;;;;;;16.80;15.30;;;3.00;99.90;;;4.06;100.00;100158.88;10369058;28;20321;-68
2023/12/17 10:18:26;;;;;;;16.13;14.70;;;3.40;99.90;;;4.03;100.00;100150.91;10364650;28;20239;-70
2023/12/17 10:23:45;;;;;;;16.30;14.70;;;3.50;99.90;;;4.01;100.00;100138.81;10371872;28;20729;-69
2023/12/17 10:28:52;;;;;;;17.53;15.93;;;3.50;99.90;;;4.13;100.00;100134.28;10367600;28;20249;-70
2023/12/17 10:34:11;;;;;;;18.40;16.63;;;3.60;99.90;;;4.53;100.00;100119.63;10370226;28;20767;-69
2023/12/17 10:39:34;;;;;;;16.83;15.33;;;3.90;99.90;;;4.57;100.00;100114.19;10483323;27;21167;-68
2023/12/17 10:44:38;;;;;;;16.60;15.10;;;4.10;99.90;;;4.68;100.00;100102.78;10488070;28;20318;-69
2023/12/17 10:49:42;;;;;;;18.00;16.40;;;4.10;99.90;;;4.60;100.00;100095.91;10495888;28;20598;-69
2023/12/17 10:54:46;;;;;;;17.97;16.17;;;4.10;99.90;;;4.60;100.00;100080.72;10448445;28;20732;-69
2023/12/17 10:59:51;;;;;;;17.47;15.77;;;4.10;99.90;;;4.80;100.00;100068.72;10455212;28;20607;-69
2023/12/17 11:04:56;;;;;;;18.17;16.47;;;4.20;99.90;;;4.96;100.00;100073.94;10455201;28;20220;-69
2023/12/17 11:10:01;;;;;;;19.27;17.40;;;4.40;99.90;;;5.06;100.00;100066.66;10487844;28;20687;-71
2023/12/17 11:15:06;;;;;;;18.00;16.30;;;4.50;99.90;;;5.26;100.00;100056.22;10503928;28;20257;-71
2023/12/17 11:20:10;;;;;;;17.73;16.13;;;4.70;99.90;;;5.54;100.00;100059.34;10442406;28;20244;-71
2023/12/17 11:25:15;;;;;;;17.47;15.73;;;4.90;99.90;;;5.55;100.00;100056.06;10437381;28;20212;-70
2023/12/17 11:30:28;;;;;;;17.67;15.93;;;4.90;99.90;;;5.59;100.00;100043.03;10500959;28;20614;-70
2023/12/17 11:35:35;;;;;;;17.23;15.63;;;5.00;99.90;;;5.52;100.00;100032.91;10463376;28;20737;-69
2023/12/17 11:40:40;;;;;;;17.20;15.70;;;5.00;99.90;;;5.61;100.00;100028.88;10434377;28;20228;-70
2023/12/17 11:45:45;;;;;;;16.87;15.30;;;5.10;99.90;;;5.71;100.00;100019.00;10445957;28;20234;-69
2023/12/17 11:50:52;;;;;;;19.20;17.30;;;5.20;99.90;;;5.83;100.00;100010.19;10480225;28;20229;-71
2023/12/17 11:55:59;;;;;;;23.53;21.03;;;5.20;99.90;;;5.98;100.00;99995.81;10478319;28;20228;-70
2023/12/17 12:01:09;;;;;;;24.17;21.50;;;5.30;99.90;;;6.05;100.00;99993.19;10481946;28;20275;-71
2023/12/17 12:06:14;;;;;;;18.77;16.93;;;5.40;99.90;;;6.23;100.00;99989.19;10452049;28;20224;-70
2023/12/17 12:11:21;;;;;;;16.00;14.50;;;5.50;99.90;;;6.06;99.63;99983.94;10481945;28;20590;-70
2023/12/17 12:16:24;;;;;;;15.37;13.90;;;5.40;99.90;;;5.98;100.00;99970.44;10483339;28;20231;-70
2023/12/17 12:21:31;;;;;;;17.53;15.93;;;5.30;99.90;;;5.97;100.00;99981.28;10463808;28;20748;-70
2023/12/17 12:26:36;;;;;;;17.43;15.83;;;5.40;99.90;;;6.09;100.00;99976.66;10445277;28;20225;-70
2023/12/17 12:31:40;;;;;;;18.53;16.80;;;5.50;99.90;;;6.21;100.00;99969.47;10448527;28;20224;-71
2023/12/17 12:36:44;;;;;;;17.33;15.83;;;5.60;99.90;;;6.15;100.00;99966.25;10482604;28;20341;-72
2023/12/17 12:41:50;;;;;;;17.13;15.63;;;5.60;99.90;;;6.25;100.00;99961.44;10486266;28;20233;-71
2023/12/17 12:46:53;;;;;;;16.87;15.27;;;5.60;99.90;;;6.27;100.00;99958.34;10475737;28;20239;-71
2023/12/17 12:51:57;;;;;;;16.50;15.00;;;5.60;99.90;;;6.29;100.00;99954.31;10484630;28;20235;-72
2023/12/17 12:57:01;;;;;;;16.30;14.77;;;5.60;99.90;;;6.22;100.00;99946.78;10453130;28;20231;-70
2023/12/17 13:02:05;;;;;;;16.57;15.07;;;5.60;99.90;;;6.52;100.00;99933.94;10479184;28;20745;-68
2023/12/17 13:07:08;;;;;;;16.50;14.83;;;5.80;99.90;;;6.75;97.86;99917.66;10472981;28;20746;-68
2023/12/17 13:12:13;;;;;;;14.90;13.50;;;6.00;99.90;;;6.81;98.56;99919.94;10419361;28;20220;-70
2023/12/17 13:17:16;;;;;;;14.97;13.67;;;6.10;99.90;;;6.69;98.75;99910.28;10431229;28;20322;-70
2023/12/17 13:22:20;;;;;;;15.57;14.17;;;6.10;99.90;;;6.52;99.72;99907.59;10500498;28;20291;-72
2023/12/17 13:27:24;;;;;;;15.90;14.43;;;5.90;99.90;;;6.67;100.00;99898.19;10504418;28;20228;-71
2023/12/17 13:32:28;;;;;;;15.00;13.60;;;6.00;99.90;;;6.62;100.00;99879.91;10483656;28;20235;-71
2023/12/17 13:37:31;;;;;;;15.67;14.13;;;6.00;99.90;;;6.69;100.00;99887.41;10428078;28;20240;-71
2023/12/17 13:42:36;;;;;;;16.93;15.40;;;6.00;99.90;;;6.61;100.00;99873.03;10417254;28;20228;-70
2023/12/17 13:47:39;;;;;;;16.93;15.27;;;6.00;99.90;;;6.81;100.00;99870.03;10413992;28;20747;-70
2023/12/17 13:52:42;;;;;;;16.20;14.70;;;6.10;99.90;;;6.70;100.00;99866.38;10428794;28;20629;-70
2023/12/17 13:57:46;;;;;;;18.03;16.43;;;6.00;99.90;;;6.72;100.00;99864.91;10484281;28;20232;-70
2023/12/17 14:02:49;;;;;;;16.50;15.03;;;6.00;99.90;;;6.72;100.00;99857.28;10491737;28;20223;-70
2023/12/17 14:07:53;;;;;;;16.50;14.80;;;6.00;99.90;;;6.60;100.00;99845.81;10434585;28;20240;-71
2023/12/17 14:12:59;;;;;;;18.27;16.47;;;5.90;99.90;;;6.58;100.00;99856.53;10423703;28;20312;-70
2023/12/17 14:18:03;;;;;;;16.87;15.37;;;5.90;99.90;;;6.41;100.00;99860.78;10420337;28;20236;-70
2023/12/17 14:23:07;;;;;;;19.23;17.30;;;5.80;99.90;;;6.34;100.00;99860.84;10486007;28;20212;-71
2023/12/17 14:28:11;;;;;;;52.53;33.77;;;5.70;99.90;;;6.25;100.00;99860.78;10461906;28;20228;-71
2023/12/17 14:33:15;;;;;;;30.63;26.33;;;5.60;99.90;;;6.19;100.00;99860.13;10423098;28;20225;-70
2023/12/17 14:38:20;;;;;;;26.07;23.37;;;5.60;99.90;;;6.09;100.00;99860.81;10416217;28;20236;-70
2023/12/17 14:43:24;;;;;;;21.10;18.93;;;5.40;99.90;;;6.01;100.00;99855.63;10416405;28;20221;-71
2023/12/17 14:48:27;;;;;;;20.33;18.27;;;5.30;99.90;;;5.91;100.00;99855.34;10417301;28;20759;-71
2023/12/17 14:53:31;;;;;;;18.90;17.20;;;5.20;99.90;;;5.86;100.00;99855.75;10464527;28;20249;-71
2023/12/17 14:58:35;;;;;;;17.70;16.00;;;5.10;99.90;;;5.68;100.00;99851.22;10500012;28;20235;-71
2023/12/17 15:03:40;;;;;;;19.13;17.27;;;5.00;99.90;;;5.57;100.00;99861.84;10447237;28;20595;-71
2023/12/17 15:08:43;;;;;;;18.23;16.30;;;4.90;99.90;;;5.46;100.00;99863.22;10466900;28;20232;-71
2023/12/17 15:13:48;;;;;;;20.47;18.47;;;4.70;99.90;;;5.29;100.00;99865.53;10487822;28;20278;-71
2023/12/17 15:18:51;;;;;;;22.40;20.20;;;4.60;99.90;;;5.11;100.00;99874.56;10495386;28;20779;-70
2023/12/17 15:23:54;;;;;;;23.07;20.67;;;4.40;99.90;;;4.97;100.00;99863.78;10504126;28;20243;-72
2023/12/17 15:28:59;;;;;;;20.40;18.30;;;4.30;99.90;;;4.89;100.00;99869.66;10496424;28;20764;-72
2023/12/17 15:34:02;;;;;;;20.50;18.40;;;4.20;99.90;;;4.76;100.00;99876.59;10493048;28;20649;-71
2023/12/17 15:39:05;;;;;;;17.77;16.17;;;4.10;99.90;;;4.68;100.00;99877.38;10494314;28;20231;-68
2023/12/17 15:44:11;;;;;;;18.50;16.80;;;4.00;99.90;;;4.58;100.00;99887.19;10493199;28;20228;-69
2023/12/17 15:49:14;;;;;;;15.60;14.13;;;3.90;99.90;;;4.46;100.00;99890.16;10495356;28;20317;-69
2023/12/17 15:54:18;;;;;;;19.43;17.47;;;3.80;99.90;;;4.42;100.00;99882.94;10486882;28;20234;-71
2023/12/17 15:59:22;;;;;;;22.40;20.10;;;3.70;99.90;;;4.32;100.00;99890.22;10493103;28;20265;-74
2023/12/17 16:04:26;;;;;;;28.33;25.40;;;3.60;99.90;;;4.15;100.00;99889.91;10486628;28;20635;-70
2023/12/17 16:09:29;;;;;;;24.07;21.80;;;3.50;99.90;;;4.10;100.00;99896.97;10411599;28;20236;-70
2023/12/17 16:14:34;;;;;;;26.57;23.97;;;3.40;99.90;;;3.94;100.00;99893.41;10453418;28;20228;-68
2023/12/17 16:19:37;;;;;;;24.00;21.70;;;3.30;99.90;;;3.91;100.00;99891.41;10476972;28;20815;-68
2023/12/17 16:24:41;;;;;;;23.37;21.07;;;3.20;99.90;;;3.77;100.00;99897.41;10476872;28;20583;-69
2023/12/17 16:29:46;;;;;;;23.53;21.23;;;3.10;99.90;;;3.67;100.00;99898.69;10409873;28;20233;-70
2023/12/17 16:34:49;;;;;;;28.93;26.10;;;3.00;99.90;;;3.70;100.00;99901.59;10412461;28;20721;-69
2023/12/17 16:39:53;;;;;;;25.87;23.27;;;3.00;99.90;;;3.65;100.00;99912.78;10414119;28;20718;-69
2023/12/17 16:44:57;;;;;;;21.33;19.33;;;3.00;99.90;;;3.49;100.00;99916.06;10417445;28;20236;-69
2023/12/17 16:50:02;;;;;;;20.50;18.40;;;2.90;99.90;;;3.39;100.00;99913.16;10416986;28;20235;-70
2023/12/17 16:55:06;;;;;;;19.97;17.97;;;2.80;99.90;;;3.34;100.00;99916.75;10485002;28;20224;-69
2023/12/17 17:00:12;;;;;;;18.17;16.47;;;2.80;99.90;;;3.44;100.00;99924.72;10492564;28;20366;-70
2023/12/17 17:05:15;;;;;;;18.97;17.10;;;2.90;99.90;;;3.53;100.00;99923.25;10488112;28;20224;-68
2023/12/17 17:10:19;;;;;;;28.10;24.13;;;2.90;99.90;;;3.65;100.00;99917.84;10456142;28;20233;-70
2023/12/17 17:15:24;;;;;;;28.30;25.33;;;3.00;99.90;;;3.63;100.00;99916.75;10454220;28;21885;-69
2023/12/17 17:20:27;;;;;;;34.13;26.00;;;3.00;99.90;;;3.58;100.00;99918.75;10485770;28;20240;-69
2023/12/17 17:25:30;;;;;;;30.37;23.77;;;2.90;99.90;;;3.43;100.00;99920.34;10462519;28;20314;-69
2023/12/17 17:30:34;;;;;;;25.73;22.40;;;2.80;99.90;;;3.47;100.00;99916.59;10485589;28;20231;-69
2023/12/17 17:35:38;;;;;;;28.10;23.47;;;2.90;99.90;;;3.43;100.00;99922.00;10484103;28;20520;-69
2023/12/17 17:40:42;;;;;;;26.50;22.23;;;2.80;99.90;;;3.40;100.00;99912.41;10489298;28;20347;-69
2023/12/17 17:45:46;;;;;;;23.93;19.57;;;2.80;99.90;;;3.39;100.00;99918.22;10484538;28;20232;-67
2023/12/17 17:50:50;;;;;;;23.17;19.60;;;2.70;99.90;;;3.27;100.00;99916.78;10444243;28;20233;-69
2023/12/17 17:55:53;;;;;;;27.20;24.23;;;2.60;99.90;;;3.28;100.00;99921.09;10405362;28;20233;-69
2023/12/17 18:00:58;;;;;;;28.37;24.13;;;2.60;99.90;;;3.25;100.00;99918.19;10407816;28;20249;-69
2023/12/17 18:06:01;;;;;;;26.17;23.37;;;2.50;99.90;;;3.26;100.00;99922.53;10435817;28;20574;-69
2023/12/17 18:11:05;;;;;;;23.53;20.30;;;2.50;99.90;;;3.10;100.00;99919.81;10486054;28;20240;-68
2023/12/17 18:16:09;;;;;;;20.30;18.20;;;2.40;99.90;;;3.12;100.00;99911.69;10455403;28;20316;-70
2023/12/17 18:21:13;;;;;;;53.43;22.20;;;2.50;99.90;;;3.11;100.00;99909.88;10427137;28;20234;-69
2023/12/17 18:26:22;;;;;;;30.50;18.83;;;2.40;99.90;;;2.99;100.00;99925.22;10480010;28;20239;-68
2023/12/17 18:31:27;;;;;;;33.87;23.47;;;2.30;99.90;;;2.92;100.00;99929.53;10482519;28;20235;-69
2023/12/17 18:36:31;;;;;;;33.77;24.63;;;2.30;99.90;;;3.04;100.00;99927.56;10481287;28;20225;-68
2023/12/17 18:41:34;;;;;;;33.53;26.93;;;2.30;99.90;;;2.93;100.00;99922.84;10484956;28;20234;-69
2023/12/17 18:46:39;;;;;;;71.87;25.57;;;2.30;99.90;;;2.80;100.00;99925.50;10478706;28;20230;-69
2023/12/17 18:51:42;;;;;;;33.63;21.00;;;2.20;99.90;;;2.70;100.00;99913.41;10476638;28;20233;-71
2023/12/17 18:56:46;;;;;;;29.27;25.57;;;2.10;99.90;;;2.52;100.00;99916.25;10476128;28;20235;-69
2023/12/17 19:01:50;;;;;;;20.93;18.60;;;2.00;99.90;;;2.47;100.00;99912.25;10488717;28;20721;-69
2023/12/17 19:06:53;;;;;;;24.87;21.90;;;1.90;99.90;;;2.49;100.00;99913.34;10489468;28;20241;-69
2023/12/17 19:11:57;;;;;;;22.13;18.20;;;1.90;99.90;;;2.47;100.00;99912.25;10494028;28;21007;-69
2023/12/17 19:17:05;;;;;;;22.67;20.23;;;1.90;99.90;;;2.49;100.00;99913.34;10457417;28;20234;-70
2023/12/17 19:22:09;;;;;;;23.10;18.73;;;1.90;99.90;;;2.43;100.00;99913.50;10456205;28;20239;-68
2023/12/17 19:27:12;;;;;;;28.43;23.33;;;1.80;99.90;;;2.36;100.00;99920.13;10491241;28;20318;-69
2023/12/17 19:32:17;;;;;;;27.63;24.13;;;1.70;99.90;;;2.41;100.00;99903.94;10487796;28;20633;-69
2023/12/17 19:37:20;;;;;;;26.50;22.53;;;1.70;99.90;;;2.19;100.00;99903.84;10489747;28;20266;-70
2023/12/17 19:42:27;;;;;;;27.30;20.70;;;1.50;99.90;;;2.16;100.00;99895.00;10487048;28;20246;-69
2023/12/17 19:47:32;;;;;;;22.33;19.33;;;1.50;99.90;;;2.18;100.00;99891.97;10485218;28;20227;-69
2023/12/17 19:52:35;;;;;;;23.80;21.40;;;1.60;99.90;;;2.12;100.00;99895.31;10492697;28;20224;-69
2023/12/17 19:57:40;;;;;;;26.33;23.50;;;1.50;99.90;;;2.03;100.00;99900.16;10494786;28;20234;-68
2023/12/17 20:02:45;;;;;;;21.03;18.97;;;1.40;99.90;;;2.07;100.00;99897.31;10491088;28;21375;-71
2023/12/17 20:07:48;;;;;;;24.10;21.60;;;1.40;99.90;;;2.19;100.00;99902.94;10489606;28;20227;-69
2023/12/17 20:12:51;;;;;;;17.97;16.03;;;1.40;99.90;;;1.91;100.00;99903.69;10485271;28;20470;-69
2023/12/17 20:17:56;;;;;;;22.73;17.93;;;1.20;99.90;;;1.52;100.00;99905.63;10493992;28;20220;-69
2023/12/17 20:22:59;;;;;;;26.50;20.93;;;0.90;99.90;;;1.60;100.00;99904.91;10484620;28;20224;-69
2023/12/17 20:28:02;;;;;;;50.40;30.57;;;1.00;99.90;;;1.52;100.00;99898.06;10494800;28;20232;-74
2023/12/17 20:33:11;;;;;;;44.70;29.23;;;0.90;99.90;;;1.62;100.00;99895.03;10475250;28;20244;-71
2023/12/17 20:38:15;;;;;;;43.13;29.57;;;1.00;99.90;;;1.60;100.00;99897.34;10405683;28;20225;-68
2023/12/17 20:43:19;;;;;;;36.90;27.67;;;1.00;99.90;;;1.67;100.00;99905.00;10422015;28;20302;-68
2023/12/17 20:48:24;;;;;;;19.33;17.53;;;1.00;99.90;;;1.70;100.00;99897.81;10429107;28;20224;-69